sensor_id;sensor_type;location;lat;lon;timestamp;pressure;altitude;pressure_sealevel;temperature;humidity
20971;BME280;10644;48.834;10.088;2023-02-14T00:02:11;98498.75;;;4.10;71.74
20971;BME280;10644;48.834;10.088;2023-02-14T00:04:45;98498.78;;;4.17;71.12
20971;BME280;10644;48.834;10.088;2023-02-14T00:07:20;98498.78;;;4.34;70.47
20971;BME280;10644;48.834;10.088;2023-02-14T00:09:46;98496.22;;;4.52;70.23
20971;BME280;10644;48.834;10.088;2023-02-14T00:12:13;98497.88;;;4.80;69.36
20971;BME280;10644;48.834;10.088;2023-02-14T00:14:38;98486.84;;;4.94;68.29
20971;BME280;10644;48.834;10.088;2023-02-14T00:17:31;98485.94;;;5.10;67.85
20971;BME280;10644;48.834;10.088;2023-02-14T00:19:57;98487.63;;;5.11;67.35
20971;BME280;10644;48.834;10.088;2023-02-14T00:22:26;98481.78;;;4.85;66.91
20971;BME280;10644;48.834;10.088;2023-02-14T00:24:51;98501.28;;;4.64;67.75
20971;BME280;10644;48.834;10.088;2023-02-14T00:27:16;98490.31;;;4.45;68.33
20971;BME280;10644;48.834;10.088;2023-02-14T00:29:45;98492.00;;;3.98;69.77
20971;BME280;10644;48.834;10.088;2023-02-14T00:32:15;98490.34;;;4.09;70.24
20971;BME280;10644;48.834;10.088;2023-02-14T00:34:42;98492.81;;;3.87;70.57
20971;BME280;10644;48.834;10.088;2023-02-14T00:37:12;98484.34;;;3.70;71.41
20971;BME280;10644;48.834;10.088;2023-02-14T00:39:42;98486.91;;;3.76;71.16
20971;BME280;10644;48.834;10.088;2023-02-14T00:42:20;98485.19;;;3.64;71.50
20971;BME280;10644;48.834;10.088;2023-02-14T00:44:48;98497.81;;;3.40;72.83
20971;BME280;10644;48.834;10.088;2023-02-14T00:47:13;98492.72;;;3.36;73.36
20971;BME280;10644;48.834;10.088;2023-02-14T00:49:46;98492.69;;;3.25;73.74
20971;BME280;10644;48.834;10.088;2023-02-14T00:52:17;98492.69;;;3.34;73.35
20971;BME280;10644;48.834;10.088;2023-02-14T00:54:48;98486.03;;;3.56;72.49
20971;BME280;10644;48.834;10.088;2023-02-14T00:57:15;98493.66;;;3.75;72.36
20971;BME280;10644;48.834;10.088;2023-02-14T00:59:42;98484.38;;;3.73;72.02
20971;BME280;10644;48.834;10.088;2023-02-14T01:02:07;98487.72;;;3.61;72.41
20971;BME280;10644;48.834;10.088;2023-02-14T01:04:42;98483.53;;;3.68;72.07
20971;BME280;10644;48.834;10.088;2023-02-14T01:07:12;98490.22;;;3.55;72.42
20971;BME280;10644;48.834;10.088;2023-02-14T01:09:42;98477.63;;;3.66;72.67
20971;BME280;10644;48.834;10.088;2023-02-14T01:12:13;98490.25;;;3.73;72.12
20971;BME280;10644;48.834;10.088;2023-02-14T01:14:38;98491.97;;;3.83;71.47
20971;BME280;10644;48.834;10.088;2023-02-14T01:17:05;98477.63;;;3.78;71.61
20971;BME280;10644;48.834;10.088;2023-02-14T01:19:35;98482.69;;;3.76;72.08
20971;BME280;10644;48.834;10.088;2023-02-14T01:22:01;98486.09;;;4.05;71.43
20971;BME280;10644;48.834;10.088;2023-02-14T01:24:34;98491.13;;;3.84;71.95
20971;BME280;10644;48.834;10.088;2023-02-14T01:27:05;98496.22;;;3.87;71.50
20971;BME280;10644;48.834;10.088;2023-02-14T01:29:34;98492.88;;;4.09;71.04
20971;BME280;10644;48.834;10.088;2023-02-14T01:32:08;98481.03;;;4.23;70.36
20971;BME280;10644;48.834;10.088;2023-02-14T01:34:34;98492.00;;;4.55;69.65
20971;BME280;10644;48.834;10.088;2023-02-14T01:37:08;98491.13;;;4.77;68.78
20971;BME280;10644;48.834;10.088;2023-02-14T01:39:34;98489.38;;;4.93;68.10
20971;BME280;10644;48.834;10.088;2023-02-14T01:42:04;98496.94;;;5.06;67.26
20971;BME280;10644;48.834;10.088;2023-02-14T01:47:18;98495.28;;;4.99;66.45
20971;BME280;10644;48.834;10.088;2023-02-14T01:50:01;98500.31;;;5.14;66.55
20971;BME280;10644;48.834;10.088;2023-02-14T01:52:34;98501.22;;;4.98;66.62
20971;BME280;10644;48.834;10.088;2023-02-14T01:55:09;98513.06;;;4.90;66.73
20971;BME280;10644;48.834;10.088;2023-02-14T02:00:21;98493.63;;;4.86;66.79
20971;BME280;10644;48.834;10.088;2023-02-14T02:06:51;98505.53;;;4.18;69.19
20971;BME280;10644;48.834;10.088;2023-02-14T02:09:46;98509.72;;;3.73;71.26
20971;BME280;10644;48.834;10.088;2023-02-14T02:12:27;98497.81;;;3.49;72.45
20971;BME280;10644;48.834;10.088;2023-02-14T02:15:16;98502.91;;;3.60;72.07
20971;BME280;10644;48.834;10.088;2023-02-14T02:18:10;98502.16;;;4.10;71.08
20971;BME280;10644;48.834;10.088;2023-02-14T02:36:31;98471.66;;;3.53;73.13
20971;BME280;10644;48.834;10.088;2023-02-14T02:41:34;98476.69;;;3.44;73.47
20971;BME280;10644;48.834;10.088;2023-02-14T02:44:33;98476.72;;;3.53;73.27
20971;BME280;10644;48.834;10.088;2023-02-14T02:53:20;98470.03;;;3.91;71.84
20971;BME280;10644;48.834;10.088;2023-02-14T02:56:03;98464.97;;;3.84;71.60
20971;BME280;10644;48.834;10.088;2023-02-14T02:59:07;98463.25;;;3.84;71.64
20971;BME280;10644;48.834;10.088;2023-02-14T03:01:58;98472.56;;;3.94;70.94
20971;BME280;10644;48.834;10.088;2023-02-14T03:04:28;98474.22;;;3.67;72.14
20971;BME280;10644;48.834;10.088;2023-02-14T03:07:35;98465.78;;;3.72;72.32
20971;BME280;10644;48.834;10.088;2023-02-14T03:12:50;98470.00;;;3.69;72.18
20971;BME280;10644;48.834;10.088;2023-02-14T03:20:54;98461.50;;;3.35;73.56
20971;BME280;10644;48.834;10.088;2023-02-14T03:24:08;98462.31;;;3.30;73.67
20971;BME280;10644;48.834;10.088;2023-02-14T03:26:44;98452.16;;;3.22;74.09
20971;BME280;10644;48.834;10.088;2023-02-14T03:32:26;98478.34;;;3.35;74.18
20971;BME280;10644;48.834;10.088;2023-02-14T03:37:31;98483.41;;;3.24;74.35
20971;BME280;10644;48.834;10.088;2023-02-14T03:40:08;98487.63;;;3.31;73.83
20971;BME280;10644;48.834;10.088;2023-02-14T03:42:49;98482.56;;;3.27;74.06
20971;BME280;10644;48.834;10.088;2023-02-14T03:45:21;98469.91;;;3.31;73.77
20971;BME280;10644;48.834;10.088;2023-02-14T03:47:50;98473.31;;;3.42;73.34
20971;BME280;10644;48.834;10.088;2023-02-14T03:50:18;98475.88;;;3.54;73.44
20971;BME280;10644;48.834;10.088;2023-02-14T03:52:45;98472.50;;;3.45;73.37
20971;BME280;10644;48.834;10.088;2023-02-14T03:55:18;98481.81;;;3.59;73.15
20971;BME280;10644;48.834;10.088;2023-02-14T03:58:05;98475.06;;;3.58;72.79
20971;BME280;10644;48.834;10.088;2023-02-14T04:00:45;98480.00;;;3.28;73.37
20971;BME280;10644;48.834;10.088;2023-02-14T04:03:19;98477.53;;;3.42;73.39
20971;BME280;10644;48.834;10.088;2023-02-14T04:05:47;98469.88;;;3.22;73.85
20971;BME280;10644;48.834;10.088;2023-02-14T04:08:27;98466.53;;;3.29;73.55
20971;BME280;10644;48.834;10.088;2023-02-14T04:10:55;98468.22;;;3.33;73.78
20971;BME280;10644;48.834;10.088;2023-02-14T04:13:21;98476.66;;;3.37;74.00
20971;BME280;10644;48.834;10.088;2023-02-14T04:16:07;98478.44;;;3.60;73.35
20971;BME280;10644;48.834;10.088;2023-02-14T04:18:33;98475.91;;;3.57;72.49
20971;BME280;10644;48.834;10.088;2023-02-14T04:21:19;98485.19;;;3.61;72.64
20971;BME280;10644;48.834;10.088;2023-02-14T04:23:56;98468.31;;;3.66;72.69
20971;BME280;10644;48.834;10.088;2023-02-14T04:26:24;98475.03;;;3.40;72.94
20971;BME280;10644;48.834;10.088;2023-02-14T04:28:54;98475.81;;;3.33;73.37
20971;BME280;10644;48.834;10.088;2023-02-14T04:31:22;98465.69;;;3.33;74.03
20971;BME280;10644;48.834;10.088;2023-02-14T04:33:47;98466.59;;;3.53;73.18
20971;BME280;10644;48.834;10.088;2023-02-14T04:36:30;98475.03;;;3.40;73.29
20971;BME280;10644;48.834;10.088;2023-02-14T04:38:56;98474.94;;;3.19;73.95
20971;BME280;10644;48.834;10.088;2023-02-14T04:41:22;98478.25;;;3.06;74.85
20971;BME280;10644;48.834;10.088;2023-02-14T04:43:48;98471.50;;;3.05;74.59
20971;BME280;10644;48.834;10.088;2023-02-14T04:46:22;98469.84;;;3.07;75.13
20971;BME280;10644;48.834;10.088;2023-02-14T04:48:54;98452.06;;;3.03;74.62
20971;BME280;10644;48.834;10.088;2023-02-14T04:51:19;98455.41;;;2.88;75.49
20971;BME280;10644;48.834;10.088;2023-02-14T04:53:46;98459.69;;;3.01;75.34
20971;BME280;10644;48.834;10.088;2023-02-14T04:56:12;98458.78;;;2.92;74.98
20971;BME280;10644;48.834;10.088;2023-02-14T04:58:43;98467.19;;;2.85;75.83
20971;BME280;10644;48.834;10.088;2023-02-14T05:01:10;98462.03;;;2.70;76.58
20971;BME280;10644;48.834;10.088;2023-02-14T05:04:00;98455.25;;;2.63;76.41
20971;BME280;10644;48.834;10.088;2023-02-14T05:06:32;98450.22;;;2.64;76.59
20971;BME280;10644;48.834;10.088;2023-02-14T05:08:59;98448.59;;;2.71;76.56
20971;BME280;10644;48.834;10.088;2023-02-14T05:11:26;98431.72;;;2.77;75.36
20971;BME280;10644;48.834;10.088;2023-02-14T05:13:55;98444.38;;;2.74;75.35
20971;BME280;10644;48.834;10.088;2023-02-14T05:16:24;98441.09;;;2.93;75.92
20971;BME280;10644;48.834;10.088;2023-02-14T05:18:56;98432.72;;;3.09;75.25
20971;BME280;10644;48.834;10.088;2023-02-14T05:21:25;98436.09;;;3.17;73.94
20971;BME280;10644;48.834;10.088;2023-02-14T05:23:52;98426.88;;;3.34;73.52
20971;BME280;10644;48.834;10.088;2023-02-14T05:26:20;98436.16;;;3.32;73.17
20971;BME280;10644;48.834;10.088;2023-02-14T05:28:48;98425.13;;;3.14;73.87
20971;BME280;10644;48.834;10.088;2023-02-14T05:31:16;98428.59;;;3.35;73.14
20971;BME280;10644;48.834;10.088;2023-02-14T05:33:41;98419.25;;;3.13;73.64
20971;BME280;10644;48.834;10.088;2023-02-14T05:36:07;98427.69;;;3.21;73.62
20971;BME280;10644;48.834;10.088;2023-02-14T05:38:32;98415.94;;;3.35;72.90
20971;BME280;10644;48.834;10.088;2023-02-14T05:41:00;98424.34;;;3.25;72.87
20971;BME280;10644;48.834;10.088;2023-02-14T05:43:25;98427.59;;;2.91;74.51
20971;BME280;10644;48.834;10.088;2023-02-14T05:45:55;98421.78;;;3.24;73.49
20971;BME280;10644;48.834;10.088;2023-02-14T05:48:32;98432.81;;;3.48;73.00
20971;BME280;10644;48.834;10.088;2023-02-14T05:51:03;98426.06;;;3.62;72.06
20971;BME280;10644;48.834;10.088;2023-02-14T05:53:34;98437.91;;;3.54;72.35
20971;BME280;10644;48.834;10.088;2023-02-14T05:56:02;98442.09;;;3.42;72.24
20971;BME280;10644;48.834;10.088;2023-02-14T05:58:30;98438.75;;;3.53;71.73
20971;BME280;10644;48.834;10.088;2023-02-14T06:00:58;98437.88;;;3.42;71.80
20971;BME280;10644;48.834;10.088;2023-02-14T06:03:39;98436.16;;;3.29;71.98
20971;BME280;10644;48.834;10.088;2023-02-14T06:06:19;98448.78;;;3.20;72.32
20971;BME280;10644;48.834;10.088;2023-02-14T06:08:49;98449.53;;;2.98;73.23
20971;BME280;10644;48.834;10.088;2023-02-14T06:11:19;98451.22;;;2.90;73.65
20971;BME280;10644;48.834;10.088;2023-02-14T06:13:53;98437.72;;;2.97;73.41
20971;BME280;10644;48.834;10.088;2023-02-14T06:16:19;98448.75;;;3.08;73.05
20971;BME280;10644;48.834;10.088;2023-02-14T06:18:45;98437.66;;;2.82;73.38
20971;BME280;10644;48.834;10.088;2023-02-14T06:21:10;98452.91;;;2.91;73.60
20971;BME280;10644;48.834;10.088;2023-02-14T06:23:36;98450.28;;;2.81;73.99
20971;BME280;10644;48.834;10.088;2023-02-14T06:26:02;98447.78;;;2.79;74.93
20971;BME280;10644;48.834;10.088;2023-02-14T06:28:28;98451.19;;;2.87;74.05
20971;BME280;10644;48.834;10.088;2023-02-14T06:31:00;98447.94;;;3.18;73.21
20971;BME280;10644;48.834;10.088;2023-02-14T06:33:31;98462.25;;;3.12;72.40
20971;BME280;10644;48.834;10.088;2023-02-14T06:35:58;98466.25;;;2.72;73.24
20971;BME280;10644;48.834;10.088;2023-02-14T06:38:31;98458.59;;;2.56;74.75
20971;BME280;10644;48.834;10.088;2023-02-14T06:41:03;98465.44;;;2.67;73.93
20971;BME280;10644;48.834;10.088;2023-02-14T06:43:29;98462.97;;;2.82;73.55
20971;BME280;10644;48.834;10.088;2023-02-14T06:45:55;98469.63;;;2.71;73.45
20971;BME280;10644;48.834;10.088;2023-02-14T06:48:21;98476.28;;;2.51;74.71
20971;BME280;10644;48.834;10.088;2023-02-14T06:50:47;98471.25;;;2.60;74.71
20971;BME280;10644;48.834;10.088;2023-02-14T06:53:13;98479.84;;;2.89;73.55
20971;BME280;10644;48.834;10.088;2023-02-14T06:55:39;98467.16;;;2.76;73.94
20971;BME280;10644;48.834;10.088;2023-02-14T06:58:11;98474.75;;;2.76;73.89
20971;BME280;10644;48.834;10.088;2023-02-14T07:00:41;98483.91;;;2.57;74.51
20971;BME280;10644;48.834;10.088;2023-02-14T07:03:14;98468.81;;;2.74;73.62
20971;BME280;10644;48.834;10.088;2023-02-14T07:05:40;98478.09;;;2.73;73.94
20971;BME280;10644;48.834;10.088;2023-02-14T07:08:12;98466.16;;;2.54;74.73
20971;BME280;10644;48.834;10.088;2023-02-14T07:10:49;98467.84;;;2.55;74.98
20971;BME280;10644;48.834;10.088;2023-02-14T07:13:16;98473.00;;;2.70;74.05
20971;BME280;10644;48.834;10.088;2023-02-14T07:15:43;98476.38;;;2.65;74.63
20971;BME280;10644;48.834;10.088;2023-02-14T07:18:18;98472.31;;;2.94;73.43
20971;BME280;10644;48.834;10.088;2023-02-14T07:20:50;98471.38;;;2.77;73.67
20971;BME280;10644;48.834;10.088;2023-02-14T07:23:16;98478.00;;;2.58;74.42
20971;BME280;10644;48.834;10.088;2023-02-14T07:25:43;98464.63;;;2.79;74.19
20971;BME280;10644;48.834;10.088;2023-02-14T07:28:18;98471.31;;;2.72;74.13
20971;BME280;10644;48.834;10.088;2023-02-14T07:30:44;98461.34;;;2.96;74.46
20971;BME280;10644;48.834;10.088;2023-02-14T07:33:09;98457.97;;;2.97;76.44
20971;BME280;10644;48.834;10.088;2023-02-14T07:35:36;98448.84;;;3.35;73.32
20971;BME280;10644;48.834;10.088;2023-02-14T07:38:04;98453.03;;;3.33;72.34
20971;BME280;10644;48.834;10.088;2023-02-14T07:40:30;98459.03;;;3.61;73.82
20971;BME280;10644;48.834;10.088;2023-02-14T07:42:58;98449.75;;;4.00;72.12
20971;BME280;10644;48.834;10.088;2023-02-14T07:45:26;98451.44;;;4.21;70.78
20971;BME280;10644;48.834;10.088;2023-02-14T07:47:54;98451.47;;;4.25;71.00
20971;BME280;10644;48.834;10.088;2023-02-14T07:50:22;98453.09;;;4.41;70.44
20971;BME280;10644;48.834;10.088;2023-02-14T07:52:59;98450.59;;;4.40;69.63
20971;BME280;10644;48.834;10.088;2023-02-14T07:55:26;98447.16;;;4.63;68.00
20971;BME280;10644;48.834;10.088;2023-02-14T07:57:52;98439.59;;;4.54;67.82
20971;BME280;10644;48.834;10.088;2023-02-14T08:00:19;98447.19;;;4.51;68.27
20971;BME280;10644;48.834;10.088;2023-02-14T08:02:45;98437.00;;;4.66;67.82
20971;BME280;10644;48.834;10.088;2023-02-14T08:05:13;98453.03;;;4.74;67.26
20971;BME280;10644;48.834;10.088;2023-02-14T08:07:59;98446.28;;;4.73;67.39
20971;BME280;10644;48.834;10.088;2023-02-14T08:10:30;98444.63;;;4.57;67.93
20971;BME280;10644;48.834;10.088;2023-02-14T08:12:58;98448.88;;;4.51;68.35
20971;BME280;10644;48.834;10.088;2023-02-14T08:15:34;98443.75;;;4.75;67.85
20971;BME280;10644;48.834;10.088;2023-02-14T08:18:25;98440.31;;;4.91;67.59
20971;BME280;10644;48.834;10.088;2023-02-14T08:20:57;98448.72;;;5.08;67.00
20971;BME280;10644;48.834;10.088;2023-02-14T08:23:23;98442.75;;;5.15;66.33
20971;BME280;10644;48.834;10.088;2023-02-14T08:25:52;98453.78;;;5.03;66.56
20971;BME280;10644;48.834;10.088;2023-02-14T08:28:18;98442.81;;;5.00;66.31
20971;BME280;10644;48.834;10.088;2023-02-14T08:30:45;98443.63;;;5.12;66.64
20971;BME280;10644;48.834;10.088;2023-02-14T08:33:15;98443.56;;;5.23;66.48
20971;BME280;10644;48.834;10.088;2023-02-14T08:35:53;98436.81;;;5.19;66.36
20971;BME280;10644;48.834;10.088;2023-02-14T08:38:45;98452.81;;;5.34;66.04
20971;BME280;10644;48.834;10.088;2023-02-14T08:41:24;98441.72;;;5.49;66.16
20971;BME280;10644;48.834;10.088;2023-02-14T08:44:20;98438.22;;;5.69;65.77
20971;BME280;10644;48.834;10.088;2023-02-14T08:46:47;98419.63;;;5.63;65.65
20971;BME280;10644;48.834;10.088;2023-02-14T08:49:16;98433.06;;;5.86;65.06
20971;BME280;10644;48.834;10.088;2023-02-14T08:51:47;98433.75;;;6.04;65.17
20971;BME280;10644;48.834;10.088;2023-02-14T08:54:19;98416.75;;;6.12;64.47
20971;BME280;10644;48.834;10.088;2023-02-14T08:56:48;98425.25;;;6.08;65.52
20971;BME280;10644;48.834;10.088;2023-02-14T08:59:16;98423.66;;;5.95;63.51
20971;BME280;10644;48.834;10.088;2023-02-14T09:01:41;98430.25;;;6.19;64.66
20971;BME280;10644;48.834;10.088;2023-02-14T09:04:22;98422.91;;;5.86;64.93
20971;BME280;10644;48.834;10.088;2023-02-14T09:06:49;98410.91;;;6.00;64.44
20971;BME280;10644;48.834;10.088;2023-02-14T09:12:13;98414.91;;;6.26;64.00
20971;BME280;10644;48.834;10.088;2023-02-14T09:14:45;98409.00;;;6.26;63.94
20971;BME280;10644;48.834;10.088;2023-02-14T09:17:17;98417.78;;;6.76;63.59
20971;BME280;10644;48.834;10.088;2023-02-14T09:19:47;98409.19;;;6.85;61.57
20971;BME280;10644;48.834;10.088;2023-02-14T09:22:14;98402.44;;;6.84;62.14
20971;BME280;10644;48.834;10.088;2023-02-14T09:24:52;98394.88;;;6.75;62.85
20971;BME280;10644;48.834;10.088;2023-02-14T09:27:18;98386.34;;;6.82;62.67
20971;BME280;10644;48.834;10.088;2023-02-14T09:29:45;98399.81;;;6.88;62.45
20971;BME280;10644;48.834;10.088;2023-02-14T09:32:27;98399.03;;;6.83;62.05
20971;BME280;10644;48.834;10.088;2023-02-14T09:34:59;98402.59;;;6.69;62.88
20971;BME280;10644;48.834;10.088;2023-02-14T09:37:43;98390.56;;;6.84;62.15
20971;BME280;10644;48.834;10.088;2023-02-14T09:40:27;98400.38;;;7.11;62.51
20971;BME280;10644;48.834;10.088;2023-02-14T09:43:20;98392.97;;;7.55;62.75
20971;BME280;10644;48.834;10.088;2023-02-14T09:45:53;98407.88;;;7.81;60.73
20971;BME280;10644;48.834;10.088;2023-02-14T09:48:25;98390.59;;;7.99;59.68
20971;BME280;10644;48.834;10.088;2023-02-14T09:51:07;98390.28;;;8.20;60.37
20971;BME280;10644;48.834;10.088;2023-02-14T09:53:55;98391.63;;;8.39;59.44
20971;BME280;10644;48.834;10.088;2023-02-14T09:56:39;98387.06;;;8.55;59.79
20971;BME280;10644;48.834;10.088;2023-02-14T09:59:23;98384.84;;;8.38;58.63
20971;BME280;10644;48.834;10.088;2023-02-14T10:05:18;98379.25;;;8.17;59.46
20971;BME280;10644;48.834;10.088;2023-02-14T10:08:17;98382.31;;;8.37;59.65
20971;BME280;10644;48.834;10.088;2023-02-14T10:11:06;98373.06;;;8.31;59.26
20971;BME280;10644;48.834;10.088;2023-02-14T10:13:51;98377.47;;;8.67;59.35
20971;BME280;10644;48.834;10.088;2023-02-14T10:16:26;98378.63;;;8.95;58.01
20971;BME280;10644;48.834;10.088;2023-02-14T10:22:00;98379.13;;;9.11;57.11
20971;BME280;10644;48.834;10.088;2023-02-14T10:24:48;98376.25;;;9.27;58.23
20971;BME280;10644;48.834;10.088;2023-02-14T10:27:36;98376.50;;;9.53;56.75
20971;BME280;10644;48.834;10.088;2023-02-14T10:35:43;98374.78;;;9.90;56.01
20971;BME280;10644;48.834;10.088;2023-02-14T10:38:24;98369.81;;;9.84;55.03
20971;BME280;10644;48.834;10.088;2023-02-14T10:47:18;98356.84;;;10.25;55.69
20971;BME280;10644;48.834;10.088;2023-02-14T10:52:39;98355.59;;;10.40;54.51
20971;BME280;10644;48.834;10.088;2023-02-14T10:57:55;98353.22;;;10.34;53.81
20971;BME280;10644;48.834;10.088;2023-02-14T11:00:31;98350.16;;;10.21;54.25
20971;BME280;10644;48.834;10.088;2023-02-14T11:03:21;98343.25;;;10.23;53.92
20971;BME280;10644;48.834;10.088;2023-02-14T11:06:00;98337.97;;;10.29;54.87
20971;BME280;10644;48.834;10.088;2023-02-14T11:08:54;98331.13;;;10.60;54.77
20971;BME280;10644;48.834;10.088;2023-02-14T11:11:29;98333.13;;;10.80;54.09
20971;BME280;10644;48.834;10.088;2023-02-14T11:17:50;98318.72;;;11.06;54.06
20971;BME280;10644;48.834;10.088;2023-02-14T11:20:40;98322.75;;;10.55;53.08
20971;BME280;10644;48.834;10.088;2023-02-14T11:23:22;98310.19;;;10.77;53.38
20971;BME280;10644;48.834;10.088;2023-02-14T11:25:54;98309.06;;;10.56;54.20
20971;BME280;10644;48.834;10.088;2023-02-14T11:28:22;98311.44;;;10.62;53.48
20971;BME280;10644;48.834;10.088;2023-02-14T11:30:57;98312.78;;;10.45;54.39
20971;BME280;10644;48.834;10.088;2023-02-14T11:33:36;98307.56;;;10.78;54.18
20971;BME280;10644;48.834;10.088;2023-02-14T11:36:04;98299.47;;;11.21;52.80
20971;BME280;10644;48.834;10.088;2023-02-14T11:38:33;98301.53;;;11.08;52.42
20971;BME280;10644;48.834;10.088;2023-02-14T11:41:12;98296.50;;;11.05;52.87
20971;BME280;10644;48.834;10.088;2023-02-14T11:43:42;98304.91;;;11.10;53.00
20971;BME280;10644;48.834;10.088;2023-02-14T11:49:04;98274.28;;;11.61;52.38
20971;BME280;10644;48.834;10.088;2023-02-14T11:52:09;98287.38;;;11.78;51.27
20971;BME280;10644;48.834;10.088;2023-02-14T11:54:39;98280.50;;;11.78;51.27
20971;BME280;10644;48.834;10.088;2023-02-14T12:00:15;98274.56;;;11.78;51.54
20971;BME280;10644;48.834;10.088;2023-02-14T12:02:49;98280.75;;;11.97;51.42
20971;BME280;10644;48.834;10.088;2023-02-14T12:05:51;98264.44;;;12.22;51.08
20971;BME280;10644;48.834;10.088;2023-02-14T12:08:30;98255.47;;;11.85;50.86
20971;BME280;10644;48.834;10.088;2023-02-14T12:11:19;98253.56;;;12.16;51.57
20971;BME280;10644;48.834;10.088;2023-02-14T12:14:26;98252.19;;;12.30;51.79
20971;BME280;10644;48.834;10.088;2023-02-14T12:23:49;98238.56;;;12.97;50.66
20971;BME280;10644;48.834;10.088;2023-02-14T12:32:03;98232.41;;;13.23;48.80
20971;BME280;10644;48.834;10.088;2023-02-14T12:34:50;98223.75;;;13.02;49.08
20971;BME280;10644;48.834;10.088;2023-02-14T12:53:01;98199.84;;;14.60;48.13
20971;BME280;10644;48.834;10.088;2023-02-14T12:55:52;98187.06;;;14.94;48.52
20971;BME280;10644;48.834;10.088;2023-02-14T13:01:22;98184.38;;;15.14;44.79
20971;BME280;10644;48.834;10.088;2023-02-14T13:21:53;98164.53;;;15.67;45.80
20971;BME280;10644;48.834;10.088;2023-02-14T13:24:27;98156.78;;;15.84;45.04
20971;BME280;10644;48.834;10.088;2023-02-14T13:27:12;98148.38;;;15.96;45.44
20971;BME280;10644;48.834;10.088;2023-02-14T13:29:50;98150.00;;;16.14;45.05
20971;BME280;10644;48.834;10.088;2023-02-14T13:32:46;98153.38;;;16.31;45.37
20971;BME280;10644;48.834;10.088;2023-02-14T13:35:16;98150.22;;;16.26;44.18
20971;BME280;10644;48.834;10.088;2023-02-14T13:37:51;98142.13;;;16.00;43.90
20971;BME280;10644;48.834;10.088;2023-02-14T13:40:21;98141.66;;;15.59;44.66
20971;BME280;10644;48.834;10.088;2023-02-14T13:56:47;98135.34;;;15.65;44.47
20971;BME280;10644;48.834;10.088;2023-02-14T13:59:34;98134.44;;;15.49;45.24
20971;BME280;10644;48.834;10.088;2023-02-14T14:14:02;98126.63;;;14.98;46.33
20971;BME280;10644;48.834;10.088;2023-02-14T14:16:33;98124.69;;;15.03;45.84
20971;BME280;10644;48.834;10.088;2023-02-14T14:22:12;98126.72;;;14.61;47.04
20971;BME280;10644;48.834;10.088;2023-02-14T14:24:51;98127.09;;;14.89;46.24
20971;BME280;10644;48.834;10.088;2023-02-14T14:27:48;98127.25;;;15.03;46.74
20971;BME280;10644;48.834;10.088;2023-02-14T14:30:26;98123.63;;;15.24;45.93
20971;BME280;10644;48.834;10.088;2023-02-14T14:32:54;98122.41;;;15.31;45.58
20971;BME280;10644;48.834;10.088;2023-02-14T14:35:23;98115.94;;;15.41;45.61
20971;BME280;10644;48.834;10.088;2023-02-14T14:37:52;98120.44;;;15.19;45.61
20971;BME280;10644;48.834;10.088;2023-02-14T14:42:53;98124.28;;;15.46;45.39
20971;BME280;10644;48.834;10.088;2023-02-14T14:45:30;98121.78;;;15.44;45.40
20971;BME280;10644;48.834;10.088;2023-02-14T14:48:10;98122.78;;;15.23;45.70
20971;BME280;10644;48.834;10.088;2023-02-14T14:50:47;98118.78;;;15.18;46.01
20971;BME280;10644;48.834;10.088;2023-02-14T14:53:23;98119.69;;;15.00;45.66
20971;BME280;10644;48.834;10.088;2023-02-14T14:56:36;98124.31;;;14.75;46.74
20971;BME280;10644;48.834;10.088;2023-02-14T14:59:26;98121.28;;;14.67;46.94
20971;BME280;10644;48.834;10.088;2023-02-14T15:01:52;98124.91;;;14.63;46.32
20971;BME280;10644;48.834;10.088;2023-02-14T15:04:37;98122.44;;;14.43;47.38
20971;BME280;10644;48.834;10.088;2023-02-14T15:07:19;98125.31;;;14.17;47.70
20971;BME280;10644;48.834;10.088;2023-02-14T15:09:54;98120.53;;;14.28;47.75
20971;BME280;10644;48.834;10.088;2023-02-14T15:12:23;98119.91;;;14.23;47.84
20971;BME280;10644;48.834;10.088;2023-02-14T15:15:18;98120.75;;;14.23;47.90
20971;BME280;10644;48.834;10.088;2023-02-14T15:17:44;98118.16;;;14.42;47.70
20971;BME280;10644;48.834;10.088;2023-02-14T15:20:18;98117.63;;;14.54;47.67
20971;BME280;10644;48.834;10.088;2023-02-14T15:22:50;98115.34;;;14.65;47.04
20971;BME280;10644;48.834;10.088;2023-02-14T15:25:20;98118.38;;;14.56;46.92
20971;BME280;10644;48.834;10.088;2023-02-14T15:27:47;98120.66;;;14.43;46.85
20971;BME280;10644;48.834;10.088;2023-02-14T15:30:24;98123.91;;;14.10;47.41
20971;BME280;10644;48.834;10.088;2023-02-14T15:32:54;98117.63;;;13.97;47.72
20971;BME280;10644;48.834;10.088;2023-02-14T15:35:34;98119.03;;;14.04;47.85
20971;BME280;10644;48.834;10.088;2023-02-14T15:38:03;98119.47;;;14.13;47.70
20971;BME280;10644;48.834;10.088;2023-02-14T15:40:41;98118.94;;;14.25;47.83
20971;BME280;10644;48.834;10.088;2023-02-14T15:45:46;98119.59;;;14.10;47.11
20971;BME280;10644;48.834;10.088;2023-02-14T15:51:20;98125.13;;;13.83;47.54
20971;BME280;10644;48.834;10.088;2023-02-14T15:54:07;98127.34;;;13.72;48.01
20971;BME280;10644;48.834;10.088;2023-02-14T15:57:01;98134.63;;;13.63;47.87
20971;BME280;10644;48.834;10.088;2023-02-14T15:59:31;98128.91;;;13.36;47.87
20971;BME280;10644;48.834;10.088;2023-02-14T16:04:46;98137.84;;;12.85;49.02
20971;BME280;10644;48.834;10.088;2023-02-14T16:07:25;98143.81;;;12.64;49.34
20971;BME280;10644;48.834;10.088;2023-02-14T16:13:19;98145.91;;;12.10;50.25
20971;BME280;10644;48.834;10.088;2023-02-14T16:18:47;98145.19;;;11.57;51.80
20971;BME280;10644;48.834;10.088;2023-02-14T16:21:26;98148.91;;;11.49;51.72
20971;BME280;10644;48.834;10.088;2023-02-14T16:24:23;98155.72;;;11.24;52.14
20971;BME280;10644;48.834;10.088;2023-02-14T16:26:48;98147.50;;;11.14;51.80
20971;BME280;10644;48.834;10.088;2023-02-14T16:29:19;98151.41;;;11.00;52.06
20971;BME280;10644;48.834;10.088;2023-02-14T16:32:12;98157.81;;;10.87;52.62
20971;BME280;10644;48.834;10.088;2023-02-14T16:35:17;98154.84;;;10.71;52.89